Time;durP1;ratioP1;P1;durP2;ratioP2;P2;SDS_P1;SDS_P2;PMS_P1;PMS_P2;Temp;Humidity;BMP_temperature;BMP_pressure;BME280_temperature;BME280_humidity;BME280_pressure;Samples;Min_cycle;Max_cycle;Signal;HPM_P1;HPM_P2
2024/02/12 00:01:19;;;;;;;1.03;0.83;;;9.00;99.90;;;;;;4995085;28;20456;-71
2024/02/12 00:03:45;;;;;;;2.00;0.80;;;9.10;99.90;;;;;;4994530;28;20451;-69
2024/02/12 00:06:11;;;;;;;2.40;1.63;;;9.20;99.90;;;;;;4994591;28;20413;-69
2024/02/12 00:08:36;;;;;;;1.30;0.90;;;9.00;99.90;;;;;;4995006;28;20588;-70
2024/02/12 00:11:02;;;;;;;1.23;1.00;;;9.00;99.90;;;;;;4994937;28;20420;-70
2024/02/12 00:13:28;;;;;;;1.20;1.10;;;9.00;99.90;;;;;;4994755;28;20714;-70
2024/02/12 00:15:54;;;;;;;1.33;0.77;;;9.10;99.90;;;;;;4994829;28;20242;-70
2024/02/12 00:18:23;;;;;;;1.20;0.80;;;9.00;99.90;;;;;;4994898;28;20782;-70
2024/02/12 00:20:49;;;;;;;1.10;1.00;;;9.00;99.90;;;;;;4976946;28;20179;-70
2024/02/12 00:23:15;;;;;;;1.33;1.20;;;9.00;99.90;;;;;;4975066;28;20429;-70
2024/02/12 00:25:40;;;;;;;1.63;0.80;;;8.90;99.90;;;;;;4974883;28;20425;-70
2024/02/12 00:28:07;;;;;;;2.30;1.10;;;8.90;99.90;;;;;;4975385;28;20171;-70
2024/02/12 00:30:35;;;;;;;1.33;1.10;;;8.80;99.90;;;;;;4990212;28;20175;-70
2024/02/12 00:33:03;;;;;;;1.20;0.83;;;8.90;99.90;;;;;;4994572;28;20804;-70
2024/02/12 00:35:29;;;;;;;1.00;0.80;;;9.10;99.90;;;;;;4991019;28;20768;-70
2024/02/12 00:37:55;;;;;;;1.27;0.80;;;9.00;99.90;;;;;;4994169;28;20410;-70
2024/02/12 00:40:21;;;;;;;1.27;0.80;;;9.10;99.90;;;;;;4994883;28;20172;-70
2024/02/12 00:42:48;;;;;;;1.00;0.80;;;9.00;99.90;;;;;;4994504;28;20467;-70
2024/02/12 00:45:14;;;;;;;1.17;0.77;;;9.10;99.90;;;;;;4994723;28;20247;-70
2024/02/12 00:47:40;;;;;;;1.13;0.93;;;9.20;99.90;;;;;;4994304;28;20411;-70
2024/02/12 00:50:07;;;;;;;1.00;0.90;;;9.10;99.90;;;;;;4994197;28;20429;-70
2024/02/12 00:52:37;;;;;;;1.93;0.90;;;9.10;99.90;;;;;;4994578;28;20169;-70
2024/02/12 00:55:04;;;;;;;1.80;0.90;;;9.10;99.90;;;;;;4996458;28;20449;-70
2024/02/12 00:57:30;;;;;;;1.67;1.10;;;9.10;99.90;;;;;;4998312;28;20422;-70
2024/02/12 00:59:57;;;;;;;1.00;0.77;;;9.20;99.90;;;;;;4988250;28;20505;-70
2024/02/12 01:02:22;;;;;;;1.27;1.00;;;9.30;99.90;;;;;;4978958;28;20449;-69
2024/02/12 01:04:48;;;;;;;2.13;0.93;;;9.30;99.90;;;;;;4978460;28;20473;-69
2024/02/12 01:07:17;;;;;;;1.07;0.80;;;9.30;99.90;;;;;;4978741;28;20244;-70
2024/02/12 01:09:43;;;;;;;1.40;0.90;;;9.40;99.90;;;;;;4986268;28;20172;-70
2024/02/12 01:12:09;;;;;;;1.43;1.07;;;9.40;99.90;;;;;;4998444;28;20414;-70
2024/02/12 01:14:36;;;;;;;1.33;0.90;;;9.30;99.90;;;;;;4998065;28;20429;-70
2024/02/12 01:17:04;;;;;;;0.90;0.80;;;9.20;99.90;;;;;;4998147;28;20412;-70
2024/02/12 01:19:33;;;;;;;1.50;0.80;;;9.10;99.90;;;;;;4991834;28;20933;-70
2024/02/12 01:22:03;;;;;;;3.00;1.10;;;9.10;99.90;;;;;;4978192;28;20444;-70
2024/02/12 01:24:30;;;;;;;0.90;0.80;;;9.10;99.90;;;;;;4978548;28;20434;-70
2024/02/12 01:26:56;;;;;;;1.63;1.00;;;9.00;99.90;;;;;;4986202;28;20412;-70
2024/02/12 01:29:24;;;;;;;1.33;0.80;;;9.10;99.90;;;;;;4992802;28;20468;-70
2024/02/12 01:31:51;;;;;;;0.90;0.70;;;9.00;99.90;;;;;;4978285;28;20170;-70
2024/02/12 01:34:16;;;;;;;0.90;0.80;;;8.90;99.90;;;;;;4977982;28;20444;-70
2024/02/12 01:36:42;;;;;;;1.00;0.90;;;9.00;99.90;;;;;;4978460;28;20414;-70
2024/02/12 01:39:07;;;;;;;1.37;0.80;;;9.00;99.90;;;;;;4980833;28;20190;-70
2024/02/12 01:41:33;;;;;;;1.10;0.80;;;9.00;99.90;;;;;;4997602;28;20197;-70
2024/02/12 01:43:58;;;;;;;1.10;0.80;;;9.00;99.90;;;;;;4997144;28;20189;-70
2024/02/12 01:46:24;;;;;;;1.97;0.90;;;9.00;99.90;;;;;;4997430;28;20192;-70
2024/02/12 01:48:53;;;;;;;1.13;0.80;;;9.00;99.90;;;;;;4997025;28;20173;-70
2024/02/12 01:51:20;;;;;;;1.40;0.90;;;8.80;99.90;;;;;;4977975;28;20169;-70
2024/02/12 01:53:47;;;;;;;1.27;0.80;;;8.90;99.90;;;;;;4977522;28;20440;-70
2024/02/12 01:56:13;;;;;;;0.90;0.70;;;8.80;99.90;;;;;;4978059;28;20820;-70
2024/02/12 01:58:43;;;;;;;1.63;0.80;;;8.70;99.90;;;;;;4977952;28;20419;-70
2024/02/12 02:01:13;;;;;;;1.00;0.80;;;8.70;99.90;;;;;;4996509;28;20586;-70
2024/02/12 02:03:39;;;;;;;1.40;0.80;;;8.80;99.90;;;;;;4997117;28;21028;-70
2024/02/12 02:06:07;;;;;;;1.83;0.93;;;8.90;99.90;;;;;;4997285;28;20813;-70
2024/02/12 02:08:36;;;;;;;2.23;0.97;;;8.90;99.90;;;;;;4996971;28;20495;-70
2024/02/12 02:11:12;;;;;;;1.73;0.87;;;9.00;99.90;;;;;;4979246;28;20413;-70
2024/02/12 02:13:42;;;;;;;1.83;0.93;;;9.10;99.90;;;;;;4977586;28;20433;-70
2024/02/12 02:16:08;;;;;;;2.03;0.87;;;9.10;99.90;;;;;;4977058;28;20411;-70
2024/02/12 02:18:34;;;;;;;1.00;0.80;;;9.20;99.90;;;;;;4977336;28;20418;-69
2024/02/12 02:21:00;;;;;;;1.13;0.63;;;9.10;99.90;;;;;;4994384;28;20406;-70
2024/02/12 02:23:25;;;;;;;0.80;0.70;;;9.10;99.90;;;;;;4996633;28;20486;-69
2024/02/12 02:25:51;;;;;;;1.67;0.90;;;9.10;99.90;;;;;;4997100;28;20165;-70
2024/02/12 02:28:17;;;;;;;1.00;0.77;;;9.10;99.90;;;;;;4996605;28;20182;-70
2024/02/12 02:30:43;;;;;;;1.57;0.70;;;9.20;99.90;;;;;;4981576;28;20219;-70
2024/02/12 02:33:09;;;;;;;1.93;0.90;;;9.20;99.90;;;;;;4977916;28;20456;-70
2024/02/12 02:35:38;;;;;;;0.70;0.60;;;9.30;99.90;;;;;;4977547;28;20186;-70
2024/02/12 02:38:03;;;;;;;1.50;0.77;;;9.30;99.90;;;;;;4977118;28;20422;-70
2024/02/12 02:40:29;;;;;;;0.80;0.60;;;9.40;99.90;;;;;;4985535;28;20417;-70
2024/02/12 02:42:54;;;;;;;1.33;1.10;;;9.30;99.90;;;;;;4997264;28;20238;-70
2024/02/12 02:45:21;;;;;;;1.87;0.90;;;9.10;99.90;;;;;;4996204;28;20170;-70
2024/02/12 02:47:49;;;;;;;1.37;0.80;;;9.00;99.90;;;;;;4995566;28;20258;-70
2024/02/12 02:50:15;;;;;;;1.53;0.80;;;8.80;99.90;;;;;;4985281;28;20423;-70
2024/02/12 02:52:41;;;;;;;1.10;0.77;;;8.90;99.90;;;;;;4976664;28;20414;-69
2024/02/12 02:55:08;;;;;;;1.10;0.83;;;9.10;99.90;;;;;;4976777;28;20256;-69
2024/02/12 02:57:34;;;;;;;0.80;0.70;;;9.10;99.90;;;;;;4976852;28;20176;-70
2024/02/12 03:00:03;;;;;;;1.27;0.63;;;9.00;99.90;;;;;;4983936;28;20489;-69
2024/02/12 03:02:29;;;;;;;1.03;0.60;;;8.90;99.90;;;;;;4994548;28;20823;-69
2024/02/12 03:04:55;;;;;;;0.80;0.67;;;9.20;99.90;;;;;;4995992;28;20454;-70
2024/02/12 03:07:21;;;;;;;1.83;0.70;;;9.30;99.90;;;;;;4995979;28;20401;-69
2024/02/12 03:09:47;;;;;;;1.10;0.80;;;9.20;99.90;;;;;;4995471;28;20926;-70
2024/02/12 03:12:13;;;;;;;0.90;0.80;;;9.10;99.90;;;;;;4996072;28;20410;-70
2024/02/12 03:14:40;;;;;;;1.10;0.80;;;9.10;99.90;;;;;;4995390;28;20270;-70
2024/02/12 03:17:06;;;;;;;1.03;0.80;;;9.30;99.90;;;;;;4994864;28;20521;-68
2024/02/12 03:19:31;;;;;;;1.60;1.10;;;9.30;99.90;;;;;;4991213;28;20406;-69
2024/02/12 03:21:57;;;;;;;1.43;0.90;;;9.30;99.90;;;;;;4975901;28;20828;-70
2024/02/12 03:24:23;;;;;;;1.10;0.70;;;9.30;99.90;;;;;;4976009;28;20183;-70
2024/02/12 03:26:50;;;;;;;1.30;0.70;;;9.30;99.90;;;;;;4976327;28;20174;-70
2024/02/12 03:29:16;;;;;;;0.90;0.60;;;9.40;99.90;;;;;;4978517;28;20174;-70
2024/02/12 03:31:41;;;;;;;1.30;0.80;;;9.60;99.90;;;;;;4995248;28;20770;-70
2024/02/12 03:34:08;;;;;;;1.30;0.87;;;9.60;99.90;;;;;;4986988;28;20193;-70
2024/02/12 03:36:33;;;;;;;1.07;0.80;;;9.50;99.90;;;;;;4976460;28;20175;-70
2024/02/12 03:38:59;;;;;;;1.63;0.77;;;9.60;99.90;;;;;;4975962;28;20413;-70
2024/02/12 03:41:25;;;;;;;0.83;0.70;;;9.60;99.90;;;;;;4995199;28;20283;-70
2024/02/12 03:43:55;;;;;;;2.37;0.70;;;9.60;99.90;;;;;;4993927;28;20192;-70
2024/02/12 03:46:21;;;;;;;0.90;0.77;;;9.70;99.90;;;;;;4995542;28;20837;-70
2024/02/12 03:59:53;;;;;;;1.10;0.70;;;9.30;99.90;;;;;;4981544;28;20479;-70
2024/02/12 04:02:23;;;;;;;1.00;0.80;;;9.30;99.90;;;;;;4993664;28;20442;-70
2024/02/12 04:04:49;;;;;;;0.90;0.60;;;9.20;99.90;;;;;;4994630;28;20444;-70
2024/02/12 04:07:15;;;;;;;0.90;0.60;;;9.30;99.90;;;;;;4995157;28;20424;-70
2024/02/12 04:09:42;;;;;;;1.10;0.60;;;9.20;99.90;;;;;;4994735;28;20947;-70
2024/02/12 04:12:11;;;;;;;1.23;0.70;;;9.20;99.90;;;;;;4995374;28;20942;-71
2024/02/12 04:14:42;;;;;;;0.87;0.60;;;9.10;99.90;;;;;;4994713;28;20913;-70
2024/02/12 04:17:09;;;;;;;1.00;0.70;;;8.90;99.90;;;;;;4994727;28;20413;-70
2024/02/12 04:19:36;;;;;;;0.70;0.50;;;9.10;99.90;;;;;;4990724;28;20402;-70
2024/02/12 04:22:04;;;;;;;0.90;0.60;;;9.20;99.90;;;;;;4975475;28;20862;-70
2024/02/12 04:24:34;;;;;;;1.57;0.80;;;9.20;99.90;;;;;;4975258;28;20418;-70
2024/02/12 04:26:59;;;;;;;1.17;0.60;;;9.20;99.90;;;;;;4975215;28;20707;-70
2024/02/12 04:29:26;;;;;;;1.60;0.70;;;9.20;99.90;;;;;;4977218;28;20432;-70
2024/02/12 04:31:52;;;;;;;1.63;0.63;;;9.20;99.90;;;;;;4994413;28;20311;-70
2024/02/12 04:34:18;;;;;;;1.40;0.80;;;9.30;99.90;;;;;;4994277;28;20426;-70
2024/02/12 04:36:44;;;;;;;2.77;0.80;;;9.30;99.90;;;;;;4994789;28;20409;-69
2024/02/12 04:39:16;;;;;;;1.70;0.60;;;9.20;99.90;;;;;;4993924;28;20410;-70
2024/02/12 04:41:43;;;;;;;1.27;0.70;;;9.30;99.90;;;;;;4975079;28;21047;-70
2024/02/12 04:44:09;;;;;;;0.97;0.70;;;9.30;99.90;;;;;;4977425;28;20499;-70
2024/02/12 04:46:36;;;;;;;1.63;0.80;;;9.20;99.90;;;;;;4975073;28;20820;-69
2024/02/12 04:49:02;;;;;;;2.20;0.67;;;9.10;99.90;;;;;;4974837;28;20192;-70
2024/02/12 04:51:28;;;;;;;1.20;0.80;;;9.10;99.90;;;;;;4993326;28;20425;-69
2024/02/12 04:53:54;;;;;;;2.93;0.90;;;9.10;99.90;;;;;;4994161;28;20450;-70
2024/02/12 04:56:19;;;;;;;1.53;0.80;;;9.10;99.90;;;;;;4994204;28;20169;-69
2024/02/12 04:58:45;;;;;;;0.90;0.70;;;9.20;99.90;;;;;;4994606;28;20185;-69
2024/02/12 05:01:12;;;;;;;0.97;0.77;;;9.20;99.90;;;;;;4977616;28;20202;-69
2024/02/12 05:03:37;;;;;;;1.77;1.00;;;9.20;99.90;;;;;;4996402;23;20279;-70
2024/02/12 05:06:04;;;;;;;2.80;1.30;;;9.20;99.90;;;;;;5033193;28;20414;-70
2024/02/12 05:08:29;;;;;;;1.30;0.80;;;8.90;99.90;;;;;;5032836;28;20255;-68
2024/02/12 05:10:57;;;;;;;1.20;1.10;;;8.90;99.90;;;;;;5032935;28;20426;-68
2024/02/12 05:13:23;;;;;;;2.63;1.37;;;8.80;99.90;;;;;;5032732;28;20155;-70
2024/02/12 05:15:52;;;;;;;1.20;0.90;;;8.80;99.90;;;;;;5032583;28;20428;-68
2024/02/12 05:23:47;;;;;;;1.77;1.57;;;8.70;99.90;;;;;;5032619;28;20517;-68
2024/02/12 05:26:13;;;;;;;2.63;1.30;;;8.70;99.90;;;;;;5032762;28;20436;-68
2024/02/12 05:28:38;;;;;;;1.67;1.47;;;8.60;99.90;;;;;;5031141;28;20227;-68
2024/02/12 05:31:04;;;;;;;2.83;1.67;;;8.60;99.90;;;;;;5032446;28;20170;-69
2024/02/12 05:33:31;;;;;;;2.10;1.70;;;8.70;99.90;;;;;;5032302;28;20249;-69
2024/02/12 05:35:57;;;;;;;2.20;1.90;;;8.70;99.90;;;;;;5032401;28;20217;-68
2024/02/12 05:38:23;;;;;;;2.23;1.70;;;8.70;99.90;;;;;;5032025;28;20417;-68
2024/02/12 05:40:48;;;;;;;2.50;1.97;;;8.60;99.90;;;;;;5035210;28;20402;-68
2024/02/12 05:43:14;;;;;;;2.33;2.03;;;8.60;99.90;;;;;;5036188;28;20299;-68
2024/02/12 05:45:41;;;;;;;3.30;1.90;;;8.70;99.90;;;;;;5036089;28;20552;-68
2024/02/12 05:48:06;;;;;;;5.13;1.97;;;8.70;99.90;;;;;;5035870;28;20177;-68
2024/02/12 05:50:32;;;;;;;3.37;1.90;;;8.80;99.90;;;;;;5035764;28;20403;-69
2024/02/12 05:52:59;;;;;;;2.20;1.80;;;8.70;99.90;;;;;;5036152;28;20176;-68
2024/02/12 05:55:25;;;;;;;2.83;1.83;;;8.80;99.90;;;;;;5036122;28;20206;-69
2024/02/12 05:57:50;;;;;;;2.37;1.83;;;8.90;99.90;;;;;;5036002;28;20416;-67
2024/02/12 06:00:16;;;;;;;2.37;1.77;;;8.90;99.90;;;;;;5035743;28;20553;-68
2024/02/12 06:02:42;;;;;;;2.30;2.07;;;9.00;99.90;;;;;;5035904;28;20199;-68
2024/02/12 06:05:08;;;;;;;4.07;2.23;;;9.00;99.90;;;;;;5035224;28;20485;-68
2024/02/12 06:07:34;;;;;;;1.87;1.73;;;9.00;99.90;;;;;;5035573;28;20435;-69
2024/02/12 06:09:59;;;;;;;2.20;2.00;;;9.00;99.90;;;;;;5035674;28;20173;-68
2024/02/12 06:12:25;;;;;;;2.00;1.57;;;9.20;99.90;;;;;;5036013;28;20535;-68
2024/02/12 06:14:50;;;;;;;2.80;2.00;;;9.40;99.90;;;;;;5035377;28;20554;-68
2024/02/12 06:17:18;;;;;;;5.70;1.77;;;9.50;99.90;;;;;;5035307;28;20603;-68
2024/02/12 06:19:43;;;;;;;3.70;2.00;;;9.50;99.90;;;;;;5035173;28;20266;-68
2024/02/12 06:22:11;;;;;;;2.43;1.83;;;9.60;99.90;;;;;;5035150;28;20598;-69
2024/02/12 06:24:37;;;;;;;4.23;2.03;;;9.60;99.90;;;;;;5035286;28;20185;-69
2024/02/12 06:27:02;;;;;;;3.80;1.87;;;9.60;99.90;;;;;;5035173;28;20414;-68
2024/02/12 06:29:28;;;;;;;3.03;2.53;;;9.30;99.90;;;;;;5034805;28;20419;-69
2024/02/12 06:31:53;;;;;;;4.17;2.37;;;9.30;99.90;;;;;;5035080;28;20180;-68
2024/02/12 06:34:19;;;;;;;2.10;1.83;;;9.50;99.90;;;;;;5034947;28;20275;-68
2024/02/12 06:36:46;;;;;;;2.20;2.00;;;9.50;99.90;;;;;;5034861;28;20226;-68
2024/02/12 06:39:11;;;;;;;4.00;2.30;;;9.60;99.90;;;;;;5034885;28;20557;-68
2024/02/12 06:41:41;;;;;;;4.13;2.20;;;9.70;99.90;;;;;;5035003;28;20542;-68
2024/02/12 06:44:07;;;;;;;2.17;1.97;;;9.70;99.90;;;;;;5035931;28;20283;-68
2024/02/12 06:46:32;;;;;;;1.87;1.40;;;9.50;99.90;;;;;;5034978;28;20413;-69
2024/02/12 06:48:58;;;;;;;2.20;2.00;;;9.50;99.90;;;;;;5033880;28;20214;-69
2024/02/12 06:51:23;;;;;;;2.23;2.03;;;9.60;99.90;;;;;;5032607;28;20183;-68
2024/02/12 06:53:49;;;;;;;3.37;1.80;;;9.60;99.90;;;;;;5034765;28;20190;-68
2024/02/12 06:56:15;;;;;;;2.30;1.93;;;9.40;99.90;;;;;;5034630;28;20246;-68
2024/02/12 06:58:42;;;;;;;2.40;1.93;;;9.30;99.90;;;;;;5035284;28;20237;-69
2024/02/12 07:01:12;;;;;;;2.10;1.90;;;9.30;99.90;;;;;;5034573;28;20181;-68
2024/02/12 07:03:38;;;;;;;3.10;2.70;;;9.30;99.90;;;;;;5034199;28;20450;-68
2024/02/12 07:06:04;;;;;;;3.87;2.43;;;9.10;99.90;;;;;;5034461;28;20402;-69
2024/02/12 07:08:29;;;;;;;3.30;2.47;;;9.10;99.90;;;;;;5033026;28;20166;-69
2024/02/12 07:10:55;;;;;;;2.83;1.97;;;9.20;99.90;;;;;;5034435;28;20635;-69
2024/02/12 07:13:21;;;;;;;3.23;2.50;;;9.10;99.90;;;;;;5034146;28;20173;-69
2024/02/12 07:15:46;;;;;;;4.23;2.20;;;9.20;99.90;;;;;;5034132;28;20167;-70
2024/02/12 07:18:12;;;;;;;3.33;2.77;;;9.20;99.90;;;;;;5034322;28;20173;-69
2024/02/12 07:20:39;;;;;;;3.50;2.60;;;9.20;99.90;;;;;;5034339;28;20267;-69
2024/02/12 07:23:05;;;;;;;3.50;2.50;;;9.30;99.90;;;;;;5034284;28;20197;-69
2024/02/12 07:25:31;;;;;;;3.07;2.60;;;9.20;99.90;;;;;;5034017;28;20492;-69
2024/02/12 07:27:57;;;;;;;2.70;1.70;;;9.30;99.90;;;;;;5033967;28;20398;-68
2024/02/12 07:30:22;;;;;;;1.57;1.47;;;9.30;99.90;;;;;;5032734;28;20412;-69
2024/02/12 07:32:48;;;;;;;2.90;2.33;;;9.20;99.90;;;;;;5034457;28;20255;-69
2024/02/12 07:35:14;;;;;;;2.40;2.10;;;9.30;99.90;;;;;;5033617;28;20625;-71
2024/02/12 07:37:41;;;;;;;2.17;1.97;;;9.50;99.90;;;;;;5032443;28;20225;-69
2024/02/12 07:40:10;;;;;;;2.40;1.80;;;9.40;99.90;;;;;;5033609;28;20708;-69
2024/02/12 07:42:38;;;;;;;2.60;2.27;;;9.40;99.90;;;;;;5033940;28;20481;-69
2024/02/12 07:45:07;;;;;;;2.03;1.83;;;9.50;99.90;;;;;;5033918;28;20430;-69
2024/02/12 07:47:34;;;;;;;2.17;1.90;;;9.60;99.90;;;;;;5033914;28;20404;-69
2024/02/12 07:50:01;;;;;;;2.73;1.80;;;9.60;99.90;;;;;;5033851;28;20407;-69
2024/02/12 07:52:27;;;;;;;2.40;1.83;;;9.60;99.90;;;;;;5033657;28;20907;-69
2024/02/12 07:54:54;;;;;;;3.23;1.70;;;9.80;99.90;;;;;;5033745;28;20431;-69
2024/02/12 07:57:21;;;;;;;2.87;2.00;;;9.60;99.90;;;;;;5033478;28;20492;-68
2024/02/12 07:59:48;;;;;;;2.07;1.87;;;9.40;99.90;;;;;;5033249;28;20539;-69
2024/02/12 08:02:15;;;;;;;2.53;1.63;;;9.50;99.90;;;;;;5033178;28;20523;-70
2024/02/12 08:04:42;;;;;;;2.43;1.83;;;9.70;99.90;;;;;;5033168;28;20457;-68
2024/02/12 08:07:08;;;;;;;2.10;1.67;;;9.90;99.90;;;;;;5033316;28;20408;-69
2024/02/12 08:09:35;;;;;;;2.20;1.50;;;9.80;99.90;;;;;;5034141;28;20886;-70
2024/02/12 08:12:06;;;;;;;2.40;1.50;;;9.80;99.90;;;;;;5033231;28;20412;-70
2024/02/12 08:14:36;;;;;;;1.17;1.07;;;9.60;99.90;;;;;;5033355;28;20451;-69
2024/02/12 08:17:04;;;;;;;2.77;1.40;;;9.70;99.90;;;;;;5032968;28;20408;-69
2024/02/12 08:19:30;;;;;;;1.40;1.13;;;9.70;99.90;;;;;;5033243;28;20762;-70
2024/02/12 08:21:56;;;;;;;2.40;1.40;;;9.80;99.90;;;;;;5033236;28;20442;-69
2024/02/12 08:24:21;;;;;;;1.50;1.40;;;9.80;99.90;;;;;;5032802;28;20424;-69
2024/02/12 08:26:47;;;;;;;3.00;1.70;;;9.70;99.90;;;;;;5032864;28;20163;-69
2024/02/12 08:29:13;;;;;;;2.07;1.40;;;9.80;99.90;;;;;;5033012;28;20162;-69
2024/02/12 08:31:39;;;;;;;2.10;1.37;;;9.70;99.90;;;;;;5032904;28;20730;-69
2024/02/12 08:34:05;;;;;;;1.90;1.47;;;9.80;99.90;;;;;;5032969;28;20273;-69
2024/02/12 08:36:30;;;;;;;2.30;1.97;;;9.70;99.90;;;;;;5032859;28;20440;-69
2024/02/12 08:38:56;;;;;;;1.60;1.27;;;9.90;99.90;;;;;;5032842;28;20174;-69
2024/02/12 08:41:22;;;;;;;1.97;1.10;;;9.90;99.90;;;;;;5032945;28;20700;-69
2024/02/12 08:43:49;;;;;;;2.70;2.27;;;9.90;99.90;;;;;;5032810;28;20177;-69
2024/02/12 08:46:15;;;;;;;2.00;1.83;;;9.90;99.90;;;;;;5032548;28;20394;-70
2024/02/12 08:48:40;;;;;;;2.57;2.03;;;10.10;99.90;;;;;;5033369;28;20433;-69
2024/02/12 08:51:08;;;;;;;1.80;1.13;;;9.80;99.90;;;;;;5029413;28;20248;-69
2024/02/12 08:53:43;;;;;;;1.63;1.53;;;9.90;99.90;;;;;;5033056;28;20258;-69
2024/02/12 08:56:10;;;;;;;1.97;1.40;;;9.80;99.90;;;;;;5032899;28;20459;-69
2024/02/12 08:58:36;;;;;;;2.30;1.60;;;9.70;99.90;;;;;;5032854;28;20408;-68
2024/02/12 09:01:02;;;;;;;1.57;1.47;;;9.90;99.90;;;;;;5032422;28;20410;-69
2024/02/12 09:03:27;;;;;;;2.53;1.40;;;9.80;99.90;;;;;;5032605;28;20425;-69
2024/02/12 09:05:53;;;;;;;2.03;1.63;;;10.00;99.90;;;;;;5033159;28;20156;-69
2024/02/12 09:08:20;;;;;;;2.10;1.47;;;10.20;99.90;;;;;;5032375;28;20245;-69
2024/02/12 09:10:45;;;;;;;1.73;1.53;;;10.30;99.90;;;;;;5032730;28;20201;-68
2024/02/12 09:13:11;;;;;;;1.60;1.37;;;10.10;99.90;;;;;;5032600;28;20411;-69
2024/02/12 09:15:36;;;;;;;1.93;1.50;;;10.20;99.90;;;;;;5035367;28;20170;-69
2024/02/12 09:18:02;;;;;;;1.63;1.40;;;10.40;99.90;;;;;;5036772;28;20184;-69
2024/02/12 09:20:28;;;;;;;3.17;1.77;;;10.20;99.90;;;;;;5036484;28;20179;-69
2024/02/12 09:22:53;;;;;;;2.37;1.73;;;10.20;99.90;;;;;;5036446;28;20503;-69
2024/02/12 09:25:21;;;;;;;2.87;1.70;;;10.40;99.90;;;;;;5036150;28;20343;-69
2024/02/12 09:27:46;;;;;;;1.50;1.40;;;10.40;99.90;;;;;;5036226;28;20565;-69
2024/02/12 09:30:12;;;;;;;2.80;1.57;;;10.70;99.90;;;;;;5035964;28;20407;-69
2024/02/12 09:32:38;;;;;;;2.10;1.40;;;10.80;99.90;;;;;;5036000;28;20174;-69
2024/02/12 09:35:06;;;;;;;1.40;1.30;;;10.50;99.90;;;;;;5036237;28;20421;-69
2024/02/12 09:37:32;;;;;;;3.47;1.67;;;10.70;99.90;;;;;;5035761;28;20175;-69
2024/02/12 09:40:03;;;;;;;3.77;1.70;;;10.90;99.90;;;;;;5036483;28;20480;-69
2024/02/12 09:42:31;;;;;;;2.30;1.50;;;10.90;99.90;;;;;;5036378;28;20492;-69
2024/02/12 09:45:02;;;;;;;1.63;1.50;;;11.00;99.90;;;;;;5036288;28;20505;-70
2024/02/12 09:47:31;;;;;;;1.97;1.77;;;10.90;99.90;;;;;;5036065;28;20390;-70
2024/02/12 09:49:57;;;;;;;1.80;1.40;;;10.90;99.90;;;;;;5035969;28;20471;-71
2024/02/12 09:52:26;;;;;;;3.73;1.77;;;10.90;99.90;;;;;;5036585;28;20414;-70
2024/02/12 09:54:53;;;;;;;1.50;1.33;;;10.90;99.90;;;;;;5035967;28;20512;-70
2024/02/12 09:57:19;;;;;;;2.50;1.37;;;10.70;99.90;;;;;;5035597;28;20437;-69
2024/02/12 09:59:45;;;;;;;2.00;1.80;;;10.80;99.90;;;;;;5034264;28;20472;-71
2024/02/12 10:02:11;;;;;;;2.60;1.70;;;10.90;99.90;;;;;;5035487;28;20194;-70
2024/02/12 10:04:38;;;;;;;2.67;2.10;;;11.20;99.90;;;;;;5035342;28;20449;-70
2024/02/12 10:07:05;;;;;;;1.93;1.60;;;11.50;99.90;;;;;;5035532;28;20181;-70
2024/02/12 10:09:31;;;;;;;2.57;2.00;;;11.60;99.90;;;;;;5035616;28;20409;-70
2024/02/12 10:12:07;;;;;;;1.77;1.50;;;11.80;99.90;;;;;;5034568;28;20778;-70
2024/02/12 10:14:33;;;;;;;2.70;1.70;;;12.00;99.90;;;;;;5035704;28;20427;-70
2024/02/12 10:17:02;;;;;;;2.83;2.07;;;11.70;99.90;;;;;;5035425;28;20402;-70
2024/02/12 10:19:28;;;;;;;2.70;1.63;;;11.30;99.90;;;;;;5035334;28;20431;-71
2024/02/12 10:21:54;;;;;;;2.67;1.90;;;11.20;99.90;;;;;;5035204;28;20550;-71
2024/02/12 10:24:21;;;;;;;1.97;1.77;;;11.30;99.90;;;;;;5035582;28;20465;-71
2024/02/12 10:26:50;;;;;;;1.90;1.70;;;11.20;99.90;;;;;;5034149;28;20309;-71
2024/02/12 10:29:18;;;;;;;3.53;2.10;;;11.30;99.90;;;;;;5035196;28;20776;-70
2024/02/12 10:31:46;;;;;;;2.83;2.03;;;11.20;99.90;;;;;;5035130;28;20505;-71
2024/02/12 10:34:14;;;;;;;2.67;1.83;;;11.20;99.90;;;;;;5034845;28;20434;-71
2024/02/12 10:36:47;;;;;;;2.33;1.77;;;11.20;99.90;;;;;;5035008;28;20496;-70
2024/02/12 10:39:18;;;;;;;2.70;2.10;;;11.30;99.90;;;;;;5034630;28;20390;-70
2024/02/12 10:41:50;;;;;;;5.70;1.83;;;11.30;99.90;;;;;;5033587;28;20441;-71
2024/02/12 10:44:19;;;;;;;3.33;1.80;;;11.30;99.90;;;;;;5033957;28;20425;-71
2024/02/12 10:46:46;;;;;;;2.23;1.73;;;11.30;99.90;;;;;;5033001;28;20507;-70
2024/02/12 10:49:12;;;;;;;2.33;1.57;;;11.30;99.90;;;;;;5035112;28;20460;-71
2024/02/12 10:51:39;;;;;;;2.40;2.20;;;11.20;99.90;;;;;;5034674;28;20437;-71
2024/02/12 10:54:05;;;;;;;3.80;1.97;;;11.30;99.90;;;;;;5034575;28;20433;-71
2024/02/12 10:56:32;;;;;;;2.13;1.83;;;11.30;99.90;;;;;;5034530;28;20990;-71
2024/02/12 10:58:58;;;;;;;5.20;2.07;;;11.20;99.90;;;;;;5034898;28;20444;-71
2024/02/12 11:01:27;;;;;;;2.60;1.70;;;11.30;99.90;;;;;;5034425;28;20442;-70
2024/02/12 11:03:52;;;;;;;4.17;1.87;;;11.30;99.90;;;;;;5053377;23;20639;-71
2024/02/12 11:06:18;;;;;;;2.00;1.80;;;11.20;99.90;;;;;;4996018;28;20916;-71
2024/02/12 11:08:46;;;;;;;2.10;1.50;;;11.20;99.90;;;;;;4995785;28;20161;-71
2024/02/12 11:11:28;;;;;;;1.93;1.63;;;11.20;99.90;;;;;;4995672;28;20260;-71
2024/02/12 11:14:01;;;;;;;2.37;1.53;;;11.20;99.90;;;;;;4995745;28;20375;-71
2024/02/12 11:16:32;;;;;;;3.00;1.77;;;11.30;99.90;;;;;;4995422;28;20452;-71
2024/02/12 11:18:59;;;;;;;2.00;1.73;;;11.50;99.90;;;;;;4994094;28;20433;-71
2024/02/12 11:21:35;;;;;;;4.90;2.00;;;11.50;99.90;;;;;;4995198;28;20452;-71
2024/02/12 11:24:10;;;;;;;2.50;1.87;;;11.40;99.90;;;;;;4994122;28;20430;-70
2024/02/12 11:26:45;;;;;;;1.80;1.60;;;11.30;99.90;;;;;;4995359;28;20398;-71
2024/02/12 11:29:15;;;;;;;2.97;1.70;;;11.50;99.90;;;;;;4995360;28;20402;-70
2024/02/12 11:31:44;;;;;;;3.00;2.20;;;11.50;99.90;;;;;;4980334;28;20412;-70
2024/02/12 11:34:17;;;;;;;3.53;3.10;;;11.30;99.90;;;;;;4975765;28;20438;-70
2024/02/12 11:36:45;;;;;;;2.70;1.93;;;11.20;99.90;;;;;;4975935;28;20772;-70
2024/02/12 11:39:11;;;;;;;3.20;1.47;;;11.40;99.90;;;;;;4975441;28;20421;-70
2024/02/12 11:41:38;;;;;;;3.13;1.70;;;11.30;99.90;;;;;;4989746;28;20969;-71
2024/02/12 11:44:07;;;;;;;3.37;1.50;;;11.10;99.90;;;;;;4980320;28;20190;-70
2024/02/12 11:46:34;;;;;;;1.73;1.50;;;10.90;99.90;;;;;;4975645;28;20417;-71
2024/02/12 11:49:07;;;;;;;2.67;1.73;;;10.80;99.90;;;;;;4979298;28;20981;-70
2024/02/12 11:51:37;;;;;;;3.60;1.70;;;10.80;99.90;;;;;;4995443;28;20413;-71
2024/02/12 11:54:04;;;;;;;1.97;1.40;;;10.90;99.90;;;;;;4993665;28;20486;-71
2024/02/12 11:56:29;;;;;;;1.70;1.13;;;10.90;99.90;;;;;;4995170;28;20440;-71
2024/02/12 11:58:56;;;;;;;4.77;2.63;;;10.90;99.90;;;;;;4994479;28;20404;-71
2024/02/12 12:01:24;;;;;;;2.20;1.70;;;10.80;99.90;;;;;;4993441;28;20640;-70
2024/02/12 12:03:50;;;;;;;4.00;1.47;;;10.80;99.90;;;;;;4994218;28;20418;-70
2024/02/12 12:06:16;;;;;;;2.93;1.40;;;11.00;99.90;;;;;;4994612;28;20392;-71
2024/02/12 12:08:42;;;;;;;2.00;1.63;;;11.00;99.90;;;;;;4994609;28;20164;-71
2024/02/12 12:11:08;;;;;;;2.37;1.73;;;10.90;99.90;;;;;;4975299;28;20456;-70
2024/02/12 12:13:33;;;;;;;2.57;1.90;;;10.90;99.90;;;;;;4975380;28;20165;-71
2024/02/12 12:15:59;;;;;;;1.67;1.43;;;10.90;99.90;;;;;;4975318;28;20239;-70
2024/02/12 12:18:25;;;;;;;2.97;1.53;;;11.00;99.90;;;;;;4975030;28;20162;-71
2024/02/12 12:20:54;;;;;;;3.20;1.30;;;11.10;99.90;;;;;;4991171;28;20640;-71
2024/02/12 12:23:20;;;;;;;1.93;1.57;;;11.20;99.90;;;;;;4994578;28;20283;-70
2024/02/12 12:25:47;;;;;;;2.20;2.00;;;11.30;99.90;;;;;;4994162;28;20853;-70
2024/02/12 12:28:14;;;;;;;3.30;2.47;;;11.20;99.90;;;;;;4994480;28;20404;-70
2024/02/12 12:30:39;;;;;;;1.70;1.50;;;11.30;99.90;;;;;;4979213;28;20405;-70
2024/02/12 12:33:07;;;;;;;2.27;1.37;;;11.30;99.90;;;;;;4974729;28;20433;-70
2024/02/12 12:35:34;;;;;;;2.20;1.60;;;11.40;99.90;;;;;;4993294;28;20244;-71
2024/02/12 12:38:08;;;;;;;2.93;2.07;;;11.50;99.90;;;;;;4993999;28;20492;-70
2024/02/12 12:40:34;;;;;;;2.10;1.73;;;11.50;99.90;;;;;;4980285;28;20492;-70
2024/02/12 12:43:01;;;;;;;3.40;2.10;;;11.20;99.90;;;;;;4974877;28;20883;-71
2024/02/12 12:45:26;;;;;;;3.10;2.10;;;11.20;99.90;;;;;;4974479;28;20271;-71
2024/02/12 12:47:52;;;;;;;3.00;2.27;;;11.30;99.90;;;;;;4974423;28;20507;-70
2024/02/12 12:50:18;;;;;;;2.60;1.47;;;11.10;99.90;;;;;;4984098;28;20594;-72
2024/02/12 12:52:43;;;;;;;2.83;1.63;;;10.80;99.90;;;;;;4993782;28;20221;-70
2024/02/12 12:55:13;;;;;;;1.70;1.43;;;11.20;99.90;;;;;;4993291;28;20514;-71
2024/02/12 12:57:39;;;;;;;2.23;1.50;;;11.60;99.90;;;;;;4994124;28;20257;-71
2024/02/12 13:00:15;;;;;;;2.33;1.40;;;12.00;99.90;;;;;;4992455;28;21002;-70
2024/02/12 13:02:43;;;;;;;2.03;1.60;;;12.20;99.90;;;;;;4993984;28;20488;-71
2024/02/12 13:05:10;;;;;;;2.77;1.80;;;12.60;99.90;;;;;;4993586;28;20822;-71
2024/02/12 13:07:37;;;;;;;3.27;1.90;;;12.90;99.90;;;;;;4993719;28;20407;-71